Terminal Aerodrome Forecast
Issued by NWS

Home | Current Version | Previous Version | Text Only | Print | Product List | Glossary Off
Versions: 1 2 3 4 5 6 7 8 9 10 11 12 13 14 15 16 17 18 19 20 21 22

000
FTUS43 KGRB 021732
TAFATW
TAF
KATW 021732Z 0218/0318 21006KT P6SM SCT040 BKN100
     FM022000 17006KT P6SM VCSH SCT040 BKN080
      TEMPO 0221/0301 5SM -SHRA BR BKN040
     FM030100 15004KT 5SM BR SCT035 BKN070
      TEMPO 0301/0305 2SM -SHRA BR BKN035
     FM030500 VRB03KT 4SM BR VCTS SCT035CB BKN120
     FM030900 VRB03KT 3SM BR VCSH SCT009 BKN030
      TEMPO 0309/0313 1SM -TSRA BR BKN009CB
     FM031500 15005KT P6SM VCSH BKN020=

USA.gov is the U.S. government's official web portal to all federal, state and local government web resources and services.